sensor_id;sensor_type;location;lat;lon;timestamp;P1;durP1;ratioP1;P2;durP2;ratioP2
15096;SDS011;7649;52.084;7.478;2023-04-21T00:00:05;17.43;;;14.10;;
15096;SDS011;7649;52.084;7.478;2023-04-21T00:02:35;15.33;;;13.73;;
15096;SDS011;7649;52.084;7.478;2023-04-21T00:05:05;16.27;;;14.00;;
15096;SDS011;7649;52.084;7.478;2023-04-21T00:07:35;15.60;;;13.90;;
15096;SDS011;7649;52.084;7.478;2023-04-21T00:10:05;15.77;;;14.03;;
15096;SDS011;7649;52.084;7.478;2023-04-21T00:12:35;16.17;;;14.20;;
15096;SDS011;7649;52.084;7.478;2023-04-21T00:15:03;15.33;;;13.67;;
15096;SDS011;7649;52.084;7.478;2023-04-21T00:17:32;15.43;;;13.80;;
15096;SDS011;7649;52.084;7.478;2023-04-21T00:20:00;16.07;;;13.17;;
15096;SDS011;7649;52.084;7.478;2023-04-21T00:22:30;15.50;;;13.50;;
15096;SDS011;7649;52.084;7.478;2023-04-21T00:24:58;16.43;;;14.63;;
15096;SDS011;7649;52.084;7.478;2023-04-21T00:27:26;16.30;;;13.93;;
15096;SDS011;7649;52.084;7.478;2023-04-21T00:29:56;16.07;;;14.33;;
15096;SDS011;7649;52.084;7.478;2023-04-21T00:32:24;17.17;;;13.57;;
15096;SDS011;7649;52.084;7.478;2023-04-21T00:34:52;15.20;;;13.70;;
15096;SDS011;7649;52.084;7.478;2023-04-21T00:37:20;15.50;;;13.83;;
15096;SDS011;7649;52.084;7.478;2023-04-21T00:39:49;16.33;;;14.43;;
15096;SDS011;7649;52.084;7.478;2023-04-21T00:42:17;17.97;;;14.77;;
15096;SDS011;7649;52.084;7.478;2023-04-21T00:44:45;18.20;;;15.20;;
15096;SDS011;7649;52.084;7.478;2023-04-21T00:47:15;18.80;;;14.60;;
15096;SDS011;7649;52.084;7.478;2023-04-21T00:49:43;18.73;;;14.73;;
15096;SDS011;7649;52.084;7.478;2023-04-21T00:52:12;16.30;;;14.63;;
15096;SDS011;7649;52.084;7.478;2023-04-21T00:54:40;15.53;;;14.03;;
15096;SDS011;7649;52.084;7.478;2023-04-21T00:57:09;16.47;;;14.77;;
15096;SDS011;7649;52.084;7.478;2023-04-21T00:59:37;16.30;;;14.60;;
15096;SDS011;7649;52.084;7.478;2023-04-21T01:02:06;17.90;;;14.77;;
15096;SDS011;7649;52.084;7.478;2023-04-21T01:04:35;19.50;;;15.27;;
15096;SDS011;7649;52.084;7.478;2023-04-21T01:07:04;16.73;;;15.03;;
15096;SDS011;7649;52.084;7.478;2023-04-21T01:09:35;16.90;;;14.93;;
15096;SDS011;7649;52.084;7.478;2023-04-21T01:12:04;16.10;;;14.30;;
15096;SDS011;7649;52.084;7.478;2023-04-21T01:14:32;15.50;;;13.90;;
15096;SDS011;7649;52.084;7.478;2023-04-21T01:17:01;16.70;;;15.00;;
15096;SDS011;7649;52.084;7.478;2023-04-21T01:19:31;18.07;;;14.83;;
15096;SDS011;7649;52.084;7.478;2023-04-21T01:22:02;18.00;;;15.00;;
15096;SDS011;7649;52.084;7.478;2023-04-21T01:24:34;18.83;;;15.57;;
15096;SDS011;7649;52.084;7.478;2023-04-21T01:27:03;18.77;;;15.43;;
15096;SDS011;7649;52.084;7.478;2023-04-21T01:29:31;17.20;;;14.60;;
15096;SDS011;7649;52.084;7.478;2023-04-21T01:32:03;18.00;;;16.10;;
15096;SDS011;7649;52.084;7.478;2023-04-21T01:34:31;19.40;;;16.07;;
15096;SDS011;7649;52.084;7.478;2023-04-21T01:37:00;18.33;;;16.37;;
15096;SDS011;7649;52.084;7.478;2023-04-21T01:39:30;19.73;;;16.70;;
15096;SDS011;7649;52.084;7.478;2023-04-21T01:41:58;18.00;;;16.10;;
15096;SDS011;7649;52.084;7.478;2023-04-21T01:44:26;18.70;;;16.80;;
15096;SDS011;7649;52.084;7.478;2023-04-21T01:46:54;19.27;;;17.03;;
15096;SDS011;7649;52.084;7.478;2023-04-21T01:49:23;19.50;;;16.87;;
15096;SDS011;7649;52.084;7.478;2023-04-21T01:51:51;18.63;;;16.60;;
15096;SDS011;7649;52.084;7.478;2023-04-21T01:54:19;19.40;;;17.30;;
15096;SDS011;7649;52.084;7.478;2023-04-21T01:56:49;19.03;;;17.13;;
15096;SDS011;7649;52.084;7.478;2023-04-21T01:59:17;19.73;;;17.63;;
15096;SDS011;7649;52.084;7.478;2023-04-21T02:01:46;18.77;;;16.77;;
15096;SDS011;7649;52.084;7.478;2023-04-21T02:04:14;18.97;;;16.97;;
15096;SDS011;7649;52.084;7.478;2023-04-21T02:06:43;19.23;;;17.23;;
15096;SDS011;7649;52.084;7.478;2023-04-21T02:09:11;20.20;;;17.27;;
15096;SDS011;7649;52.084;7.478;2023-04-21T02:11:39;23.70;;;18.70;;
15096;SDS011;7649;52.084;7.478;2023-04-21T02:14:09;23.03;;;17.60;;
15096;SDS011;7649;52.084;7.478;2023-04-21T02:16:37;19.07;;;17.07;;
15096;SDS011;7649;52.084;7.478;2023-04-21T02:19:06;18.70;;;16.83;;
15096;SDS011;7649;52.084;7.478;2023-04-21T02:21:34;20.20;;;18.07;;
15096;SDS011;7649;52.084;7.478;2023-04-21T02:24:02;20.00;;;17.90;;
15096;SDS011;7649;52.084;7.478;2023-04-21T02:26:31;20.80;;;18.00;;
15096;SDS011;7649;52.084;7.478;2023-04-21T02:28:59;18.87;;;16.87;;
15096;SDS011;7649;52.084;7.478;2023-04-21T02:31:29;19.90;;;17.33;;
15096;SDS011;7649;52.084;7.478;2023-04-21T02:33:57;20.07;;;17.97;;
15096;SDS011;7649;52.084;7.478;2023-04-21T02:36:26;19.67;;;17.53;;
15096;SDS011;7649;52.084;7.478;2023-04-21T02:38:55;20.53;;;18.37;;
15096;SDS011;7649;52.084;7.478;2023-04-21T02:41:23;18.40;;;16.50;;
15096;SDS011;7649;52.084;7.478;2023-04-21T02:43:51;21.37;;;18.53;;
15096;SDS011;7649;52.084;7.478;2023-04-21T02:46:19;21.70;;;17.10;;
15096;SDS011;7649;52.084;7.478;2023-04-21T02:48:49;20.10;;;17.87;;
15096;SDS011;7649;52.084;7.478;2023-04-21T02:51:17;20.70;;;18.13;;
15096;SDS011;7649;52.084;7.478;2023-04-21T02:53:45;19.77;;;17.67;;
15096;SDS011;7649;52.084;7.478;2023-04-21T02:56:14;19.53;;;17.43;;
15096;SDS011;7649;52.084;7.478;2023-04-21T02:58:42;19.63;;;17.63;;
15096;SDS011;7649;52.084;7.478;2023-04-21T03:01:11;20.03;;;18.13;;
15096;SDS011;7649;52.084;7.478;2023-04-21T03:03:39;18.97;;;17.17;;
15096;SDS011;7649;52.084;7.478;2023-04-21T03:06:09;20.30;;;18.17;;
15096;SDS011;7649;52.084;7.478;2023-04-21T03:08:37;19.87;;;17.77;;
15096;SDS011;7649;52.084;7.478;2023-04-21T03:11:05;20.93;;;18.47;;
15096;SDS011;7649;52.084;7.478;2023-04-21T03:13:33;19.37;;;17.37;;
15096;SDS011;7649;52.084;7.478;2023-04-21T03:16:02;21.33;;;17.97;;
15096;SDS011;7649;52.084;7.478;2023-04-21T03:18:33;19.57;;;17.67;;
15096;SDS011;7649;52.084;7.478;2023-04-21T03:21:01;20.40;;;17.57;;
15096;SDS011;7649;52.084;7.478;2023-04-21T03:23:31;19.97;;;17.97;;
15096;SDS011;7649;52.084;7.478;2023-04-21T03:25:59;20.10;;;18.00;;
15096;SDS011;7649;52.084;7.478;2023-04-21T03:28:28;21.83;;;18.33;;
15096;SDS011;7649;52.084;7.478;2023-04-21T03:30:56;22.23;;;18.60;;
15096;SDS011;7649;52.084;7.478;2023-04-21T03:33:24;19.57;;;17.57;;
15096;SDS011;7649;52.084;7.478;2023-04-21T03:35:52;19.47;;;17.53;;
15096;SDS011;7649;52.084;7.478;2023-04-21T03:38:20;21.43;;;18.63;;
15096;SDS011;7649;52.084;7.478;2023-04-21T03:40:50;20.27;;;18.13;;
15096;SDS011;7649;52.084;7.478;2023-04-21T03:43:18;24.03;;;19.03;;
15096;SDS011;7649;52.084;7.478;2023-04-21T03:45:47;21.70;;;18.97;;
15096;SDS011;7649;52.084;7.478;2023-04-21T03:48:15;23.93;;;18.07;;
15096;SDS011;7649;52.084;7.478;2023-04-21T03:50:43;20.07;;;17.90;;
15096;SDS011;7649;52.084;7.478;2023-04-21T03:53:11;21.67;;;19.37;;
15096;SDS011;7649;52.084;7.478;2023-04-21T03:55:40;22.63;;;18.13;;
15096;SDS011;7649;52.084;7.478;2023-04-21T03:58:09;19.73;;;17.37;;
15096;SDS011;7649;52.084;7.478;2023-04-21T04:00:37;19.80;;;17.73;;
15096;SDS011;7649;52.084;7.478;2023-04-21T04:03:06;21.73;;;18.10;;
15096;SDS011;7649;52.084;7.478;2023-04-21T04:05:34;20.17;;;18.00;;
15096;SDS011;7649;52.084;7.478;2023-04-21T04:08:03;22.57;;;18.13;;
15096;SDS011;7649;52.084;7.478;2023-04-21T04:10:31;20.83;;;18.73;;
15096;SDS011;7649;52.084;7.478;2023-04-21T04:13:02;20.57;;;17.60;;
15096;SDS011;7649;52.084;7.478;2023-04-21T04:15:32;21.50;;;18.37;;
15096;SDS011;7649;52.084;7.478;2023-04-21T04:18:00;20.53;;;18.20;;
15096;SDS011;7649;52.084;7.478;2023-04-21T04:20:28;20.67;;;18.40;;
15096;SDS011;7649;52.084;7.478;2023-04-21T04:22:57;20.37;;;18.23;;
15096;SDS011;7649;52.084;7.478;2023-04-21T04:25:25;20.50;;;18.30;;
15096;SDS011;7649;52.084;7.478;2023-04-21T04:27:53;21.07;;;18.97;;
15096;SDS011;7649;52.084;7.478;2023-04-21T04:30:22;21.13;;;18.93;;
15096;SDS011;7649;52.084;7.478;2023-04-21T04:32:54;27.40;;;18.97;;
15096;SDS011;7649;52.084;7.478;2023-04-21T04:35:23;20.50;;;18.07;;
15096;SDS011;7649;52.084;7.478;2023-04-21T04:37:52;21.33;;;18.80;;
15096;SDS011;7649;52.084;7.478;2023-04-21T04:40:22;24.77;;;19.07;;
15096;SDS011;7649;52.084;7.478;2023-04-21T04:42:50;21.00;;;19.00;;
15096;SDS011;7649;52.084;7.478;2023-04-21T04:45:20;21.30;;;18.87;;
15096;SDS011;7649;52.084;7.478;2023-04-21T04:47:48;21.63;;;19.13;;
15096;SDS011;7649;52.084;7.478;2023-04-21T04:50:18;22.37;;;19.17;;
15096;SDS011;7649;52.084;7.478;2023-04-21T04:52:46;22.70;;;20.17;;
15096;SDS011;7649;52.084;7.478;2023-04-21T04:55:14;22.73;;;19.40;;
15096;SDS011;7649;52.084;7.478;2023-04-21T04:57:43;22.73;;;20.10;;
15096;SDS011;7649;52.084;7.478;2023-04-21T05:00:12;23.53;;;20.47;;
15096;SDS011;7649;52.084;7.478;2023-04-21T05:02:40;26.73;;;20.43;;
15096;SDS011;7649;52.084;7.478;2023-04-21T05:05:09;22.73;;;19.53;;
15096;SDS011;7649;52.084;7.478;2023-04-21T05:07:39;22.63;;;20.20;;
15096;SDS011;7649;52.084;7.478;2023-04-21T05:10:07;24.30;;;19.20;;
15096;SDS011;7649;52.084;7.478;2023-04-21T05:12:35;21.07;;;18.87;;
15096;SDS011;7649;52.084;7.478;2023-04-21T05:15:04;22.20;;;19.23;;
15096;SDS011;7649;52.084;7.478;2023-04-21T05:17:32;32.80;;;20.80;;
15096;SDS011;7649;52.084;7.478;2023-04-21T05:20:00;22.07;;;18.33;;
15096;SDS011;7649;52.084;7.478;2023-04-21T05:22:30;33.43;;;19.87;;
15096;SDS011;7649;52.084;7.478;2023-04-21T05:24:59;36.60;;;20.10;;
15096;SDS011;7649;52.084;7.478;2023-04-21T05:27:27;34.17;;;19.83;;
15096;SDS011;7649;52.084;7.478;2023-04-21T05:29:56;24.33;;;18.63;;
15096;SDS011;7649;52.084;7.478;2023-04-21T05:32:24;24.23;;;19.13;;
15096;SDS011;7649;52.084;7.478;2023-04-21T05:34:52;37.43;;;19.47;;
15096;SDS011;7649;52.084;7.478;2023-04-21T05:37:21;24.20;;;18.53;;
15096;SDS011;7649;52.084;7.478;2023-04-21T05:39:49;24.10;;;19.30;;
15096;SDS011;7649;52.084;7.478;2023-04-21T05:42:19;31.33;;;19.40;;
15096;SDS011;7649;52.084;7.478;2023-04-21T05:44:48;36.13;;;20.43;;
15096;SDS011;7649;52.084;7.478;2023-04-21T05:47:16;38.50;;;20.30;;
15096;SDS011;7649;52.084;7.478;2023-04-21T05:49:44;30.37;;;19.83;;
15096;SDS011;7649;52.084;7.478;2023-04-21T05:52:15;47.53;;;20.13;;
15096;SDS011;7649;52.084;7.478;2023-04-21T05:54:43;22.57;;;18.10;;
15096;SDS011;7649;52.084;7.478;2023-04-21T05:57:12;19.50;;;17.50;;
15096;SDS011;7649;52.084;7.478;2023-04-21T05:59:42;20.00;;;17.40;;
15096;SDS011;7649;52.084;7.478;2023-04-21T06:02:11;20.50;;;17.57;;
15096;SDS011;7649;52.084;7.478;2023-04-21T06:04:39;20.30;;;18.10;;
15096;SDS011;7649;52.084;7.478;2023-04-21T06:07:08;19.37;;;17.30;;
15096;SDS011;7649;52.084;7.478;2023-04-21T06:09:39;21.60;;;17.13;;
15096;SDS011;7649;52.084;7.478;2023-04-21T06:12:07;21.10;;;18.77;;
15096;SDS011;7649;52.084;7.478;2023-04-21T06:14:35;23.47;;;18.17;;
15096;SDS011;7649;52.084;7.478;2023-04-21T06:17:05;19.37;;;17.37;;
15096;SDS011;7649;52.084;7.478;2023-04-21T06:19:35;20.20;;;17.93;;
15096;SDS011;7649;52.084;7.478;2023-04-21T06:22:05;22.70;;;18.10;;
15096;SDS011;7649;52.084;7.478;2023-04-21T06:24:33;20.60;;;17.40;;
15096;SDS011;7649;52.084;7.478;2023-04-21T06:27:02;18.47;;;16.47;;
15096;SDS011;7649;52.084;7.478;2023-04-21T06:29:30;19.70;;;17.33;;
15096;SDS011;7649;52.084;7.478;2023-04-21T06:31:58;22.83;;;17.53;;
15096;SDS011;7649;52.084;7.478;2023-04-21T06:34:28;18.03;;;16.07;;
15096;SDS011;7649;52.084;7.478;2023-04-21T06:36:56;21.60;;;17.37;;
15096;SDS011;7649;52.084;7.478;2023-04-21T06:39:24;25.77;;;17.57;;
15096;SDS011;7649;52.084;7.478;2023-04-21T06:41:54;19.00;;;16.77;;
15096;SDS011;7649;52.084;7.478;2023-04-21T06:44:23;18.57;;;16.63;;
15096;SDS011;7649;52.084;7.478;2023-04-21T06:46:51;18.57;;;15.87;;
15096;SDS011;7649;52.084;7.478;2023-04-21T06:49:19;20.53;;;16.57;;
15096;SDS011;7649;52.084;7.478;2023-04-21T06:51:49;18.73;;;16.57;;
15096;SDS011;7649;52.084;7.478;2023-04-21T06:54:17;18.73;;;16.53;;
15096;SDS011;7649;52.084;7.478;2023-04-21T06:56:46;18.67;;;16.70;;
15096;SDS011;7649;52.084;7.478;2023-04-21T06:59:16;21.77;;;16.70;;
15096;SDS011;7649;52.084;7.478;2023-04-21T07:01:45;18.80;;;16.77;;
15096;SDS011;7649;52.084;7.478;2023-04-21T07:04:14;22.87;;;17.57;;
15096;SDS011;7649;52.084;7.478;2023-04-21T07:06:42;22.03;;;16.43;;
15096;SDS011;7649;52.084;7.478;2023-04-21T07:09:12;19.17;;;16.67;;
15096;SDS011;7649;52.084;7.478;2023-04-21T07:11:40;18.93;;;16.13;;
15096;SDS011;7649;52.084;7.478;2023-04-21T07:14:08;24.43;;;17.40;;
15096;SDS011;7649;52.084;7.478;2023-04-21T07:16:37;20.50;;;16.33;;
15096;SDS011;7649;52.084;7.478;2023-04-21T07:19:05;19.37;;;17.20;;
15096;SDS011;7649;52.084;7.478;2023-04-21T07:21:33;18.23;;;15.57;;
15096;SDS011;7649;52.084;7.478;2023-04-21T07:24:02;25.63;;;16.63;;
15096;SDS011;7649;52.084;7.478;2023-04-21T07:26:32;20.70;;;15.97;;
15096;SDS011;7649;52.084;7.478;2023-04-21T07:29:00;19.13;;;15.63;;
15096;SDS011;7649;52.084;7.478;2023-04-21T07:31:29;23.20;;;16.00;;
15096;SDS011;7649;52.084;7.478;2023-04-21T07:33:57;16.83;;;15.07;;
15096;SDS011;7649;52.084;7.478;2023-04-21T07:36:25;23.07;;;15.53;;
15096;SDS011;7649;52.084;7.478;2023-04-21T07:38:56;18.30;;;15.13;;
15096;SDS011;7649;52.084;7.478;2023-04-21T07:41:24;21.10;;;15.90;;
15096;SDS011;7649;52.084;7.478;2023-04-21T07:43:54;18.63;;;16.10;;
15096;SDS011;7649;52.084;7.478;2023-04-21T07:46:23;19.97;;;15.80;;
15096;SDS011;7649;52.084;7.478;2023-04-21T07:48:55;17.20;;;15.33;;
15096;SDS011;7649;52.084;7.478;2023-04-21T07:51:24;18.53;;;16.57;;
15096;SDS011;7649;52.084;7.478;2023-04-21T07:53:52;20.13;;;16.77;;
15096;SDS011;7649;52.084;7.478;2023-04-21T07:56:21;18.83;;;15.70;;
15096;SDS011;7649;52.084;7.478;2023-04-21T07:58:49;18.17;;;16.30;;
15096;SDS011;7649;52.084;7.478;2023-04-21T08:01:19;18.03;;;16.17;;
15096;SDS011;7649;52.084;7.478;2023-04-21T08:03:48;17.97;;;15.53;;
15096;SDS011;7649;52.084;7.478;2023-04-21T08:06:17;19.30;;;16.20;;
15096;SDS011;7649;52.084;7.478;2023-04-21T08:08:46;20.27;;;15.50;;
15096;SDS011;7649;52.084;7.478;2023-04-21T08:11:15;20.60;;;15.70;;
15096;SDS011;7649;52.084;7.478;2023-04-21T08:13:43;20.63;;;15.30;;
15096;SDS011;7649;52.084;7.478;2023-04-21T08:16:12;17.70;;;15.40;;
15096;SDS011;7649;52.084;7.478;2023-04-21T08:18:42;20.37;;;16.67;;
15096;SDS011;7649;52.084;7.478;2023-04-21T08:21:10;17.47;;;15.57;;
15096;SDS011;7649;52.084;7.478;2023-04-21T08:23:39;20.80;;;15.53;;
15096;SDS011;7649;52.084;7.478;2023-04-21T08:26:07;18.00;;;15.33;;
15096;SDS011;7649;52.084;7.478;2023-04-21T08:28:36;17.73;;;15.83;;
15096;SDS011;7649;52.084;7.478;2023-04-21T08:31:04;17.57;;;14.67;;
15096;SDS011;7649;52.084;7.478;2023-04-21T08:33:32;16.73;;;14.97;;
15096;SDS011;7649;52.084;7.478;2023-04-21T08:36:10;18.93;;;15.10;;
15096;SDS011;7649;52.084;7.478;2023-04-21T08:38:54;18.40;;;15.37;;
15096;SDS011;7649;52.084;7.478;2023-04-21T08:41:23;17.60;;;14.87;;
15096;SDS011;7649;52.084;7.478;2023-04-21T08:43:51;17.10;;;15.03;;
15096;SDS011;7649;52.084;7.478;2023-04-21T08:46:19;27.07;;;15.90;;
15096;SDS011;7649;52.084;7.478;2023-04-21T08:48:48;19.43;;;14.60;;
15096;SDS011;7649;52.084;7.478;2023-04-21T08:51:21;17.30;;;15.47;;
15096;SDS011;7649;52.084;7.478;2023-04-21T08:53:50;21.47;;;15.10;;
15096;SDS011;7649;52.084;7.478;2023-04-21T08:56:18;25.27;;;15.70;;
15096;SDS011;7649;52.084;7.478;2023-04-21T08:58:46;18.70;;;15.77;;
15096;SDS011;7649;52.084;7.478;2023-04-21T09:01:15;16.87;;;14.97;;
15096;SDS011;7649;52.084;7.478;2023-04-21T09:03:43;17.90;;;14.73;;
15096;SDS011;7649;52.084;7.478;2023-04-21T09:06:12;16.33;;;14.07;;
15096;SDS011;7649;52.084;7.478;2023-04-21T09:08:43;17.83;;;14.67;;
15096;SDS011;7649;52.084;7.478;2023-04-21T09:11:12;20.43;;;14.80;;
15096;SDS011;7649;52.084;7.478;2023-04-21T09:13:41;18.63;;;14.60;;
15096;SDS011;7649;52.084;7.478;2023-04-21T09:16:16;17.93;;;15.20;;
15096;SDS011;7649;52.084;7.478;2023-04-21T09:18:46;25.23;;;15.37;;
15096;SDS011;7649;52.084;7.478;2023-04-21T09:21:15;18.27;;;14.77;;
15096;SDS011;7649;52.084;7.478;2023-04-21T09:23:47;17.50;;;14.20;;
15096;SDS011;7649;52.084;7.478;2023-04-21T09:26:16;16.17;;;14.30;;
15096;SDS011;7649;52.084;7.478;2023-04-21T09:28:45;17.37;;;14.53;;
15096;SDS011;7649;52.084;7.478;2023-04-21T09:31:13;18.70;;;14.30;;
15096;SDS011;7649;52.084;7.478;2023-04-21T09:33:46;17.73;;;14.50;;
15096;SDS011;7649;52.084;7.478;2023-04-21T09:36:18;18.27;;;13.63;;
15096;SDS011;7649;52.084;7.478;2023-04-21T09:38:49;21.13;;;13.97;;
15096;SDS011;7649;52.084;7.478;2023-04-21T09:41:42;16.60;;;13.90;;
15096;SDS011;7649;52.084;7.478;2023-04-21T09:44:11;18.80;;;13.57;;
15096;SDS011;7649;52.084;7.478;2023-04-21T09:46:39;16.23;;;13.40;;
15096;SDS011;7649;52.084;7.478;2023-04-21T09:49:10;25.23;;;19.53;;
15096;SDS011;7649;52.084;7.478;2023-04-21T09:51:41;19.93;;;14.13;;
15096;SDS011;7649;52.084;7.478;2023-04-21T09:54:31;16.47;;;14.13;;
15096;SDS011;7649;52.084;7.478;2023-04-21T09:57:00;16.80;;;13.63;;
15096;SDS011;7649;52.084;7.478;2023-04-21T09:59:29;19.90;;;13.27;;
15096;SDS011;7649;52.084;7.478;2023-04-21T10:01:59;16.40;;;13.73;;
15096;SDS011;7649;52.084;7.478;2023-04-21T10:04:28;16.47;;;13.60;;
15096;SDS011;7649;52.084;7.478;2023-04-21T10:06:58;19.23;;;13.20;;
15096;SDS011;7649;52.084;7.478;2023-04-21T10:09:29;17.33;;;13.43;;
15096;SDS011;7649;52.084;7.478;2023-04-21T10:12:00;14.77;;;12.77;;
15096;SDS011;7649;52.084;7.478;2023-04-21T10:14:31;17.20;;;13.97;;
15096;SDS011;7649;52.084;7.478;2023-04-21T10:17:02;16.00;;;12.67;;
15096;SDS011;7649;52.084;7.478;2023-04-21T10:19:32;14.63;;;13.13;;
15096;SDS011;7649;52.084;7.478;2023-04-21T10:22:05;17.67;;;13.20;;
15096;SDS011;7649;52.084;7.478;2023-04-21T10:24:36;14.77;;;12.73;;
15096;SDS011;7649;52.084;7.478;2023-04-21T10:27:06;19.33;;;12.70;;
15096;SDS011;7649;52.084;7.478;2023-04-21T10:29:36;17.25;;;13.25;;
15096;SDS011;7649;52.084;7.478;2023-04-21T10:32:30;14.38;;;12.88;;
15096;SDS011;7649;52.084;7.478;2023-04-21T10:34:58;18.38;;;13.43;;
15096;SDS011;7649;52.084;7.478;2023-04-21T10:37:29;16.33;;;12.82;;
15096;SDS011;7649;52.084;7.478;2023-04-21T10:39:58;16.42;;;13.38;;
15096;SDS011;7649;52.084;7.478;2023-04-21T10:42:28;14.75;;;12.23;;
15096;SDS011;7649;52.084;7.478;2023-04-21T10:45:00;14.50;;;12.65;;
15096;SDS011;7649;52.084;7.478;2023-04-21T10:47:29;17.95;;;13.10;;
15096;SDS011;7649;52.084;7.478;2023-04-21T10:52:52;17.15;;;12.57;;
15096;SDS011;7649;52.084;7.478;2023-04-21T10:55:21;16.52;;;13.02;;
15096;SDS011;7649;52.084;7.478;2023-04-21T10:57:54;25.45;;;14.15;;
15096;SDS011;7649;52.084;7.478;2023-04-21T11:00:23;16.38;;;12.85;;
15096;SDS011;7649;52.084;7.478;2023-04-21T11:02:55;15.52;;;12.82;;
15096;SDS011;7649;52.084;7.478;2023-04-21T11:05:27;15.57;;;12.95;;
15096;SDS011;7649;52.084;7.478;2023-04-21T11:08:05;17.17;;;12.80;;
15096;SDS011;7649;52.084;7.478;2023-04-21T11:10:44;17.90;;;13.25;;
15096;SDS011;7649;52.084;7.478;2023-04-21T11:13:14;17.63;;;12.23;;
15096;SDS011;7649;52.084;7.478;2023-04-21T11:15:54;16.50;;;12.52;;
15096;SDS011;7649;52.084;7.478;2023-04-21T11:18:30;16.52;;;12.48;;
15096;SDS011;7649;52.084;7.478;2023-04-21T11:21:05;15.45;;;12.10;;
15096;SDS011;7649;52.084;7.478;2023-04-21T11:23:34;14.95;;;12.32;;
15096;SDS011;7649;52.084;7.478;2023-04-21T11:26:02;15.40;;;11.77;;
15096;SDS011;7649;52.084;7.478;2023-04-21T11:28:32;13.05;;;11.73;;
15096;SDS011;7649;52.084;7.478;2023-04-21T11:31:00;17.40;;;11.27;;
15096;SDS011;7649;52.084;7.478;2023-04-21T11:33:30;13.95;;;11.23;;
15096;SDS011;7649;52.084;7.478;2023-04-21T11:36:03;15.15;;;11.82;;
15096;SDS011;7649;52.084;7.478;2023-04-21T11:38:36;13.50;;;11.75;;
15096;SDS011;7649;52.084;7.478;2023-04-21T11:41:05;13.00;;;11.63;;
15096;SDS011;7649;52.084;7.478;2023-04-21T11:43:36;15.77;;;11.48;;
15096;SDS011;7649;52.084;7.478;2023-04-21T11:46:11;12.82;;;11.50;;
15096;SDS011;7649;52.084;7.478;2023-04-21T11:48:39;13.80;;;11.48;;
15096;SDS011;7649;52.084;7.478;2023-04-21T11:51:13;16.55;;;12.50;;
15096;SDS011;7649;52.084;7.478;2023-04-21T11:53:41;18.42;;;11.43;;
15096;SDS011;7649;52.084;7.478;2023-04-21T11:56:10;14.43;;;10.75;;
15096;SDS011;7649;52.084;7.478;2023-04-21T11:58:39;15.20;;;10.88;;
15096;SDS011;7649;52.084;7.478;2023-04-21T12:01:08;12.15;;;10.45;;
15096;SDS011;7649;52.084;7.478;2023-04-21T12:03:36;14.10;;;10.52;;
15096;SDS011;7649;52.084;7.478;2023-04-21T12:06:05;14.27;;;10.85;;
15096;SDS011;7649;52.084;7.478;2023-04-21T12:08:34;13.52;;;10.00;;
15096;SDS011;7649;52.084;7.478;2023-04-21T12:11:02;12.82;;;10.50;;
15096;SDS011;7649;52.084;7.478;2023-04-21T12:13:31;10.15;;;9.10;;
15096;SDS011;7649;52.084;7.478;2023-04-21T12:16:03;12.27;;;9.60;;
15096;SDS011;7649;52.084;7.478;2023-04-21T12:18:32;14.25;;;10.00;;
15096;SDS011;7649;52.084;7.478;2023-04-21T12:21:02;12.52;;;9.02;;
15096;SDS011;7649;52.084;7.478;2023-04-21T12:23:30;10.63;;;9.35;;
15096;SDS011;7649;52.084;7.478;2023-04-21T12:25:59;13.02;;;9.00;;
15096;SDS011;7649;52.084;7.478;2023-04-21T12:28:28;13.23;;;9.93;;
15096;SDS011;7649;52.084;7.478;2023-04-21T12:30:56;12.13;;;9.00;;
15096;SDS011;7649;52.084;7.478;2023-04-21T12:33:26;13.57;;;10.07;;
15096;SDS011;7649;52.084;7.478;2023-04-21T12:35:54;12.82;;;9.20;;
15096;SDS011;7649;52.084;7.478;2023-04-21T12:38:23;11.10;;;9.02;;
15096;SDS011;7649;52.084;7.478;2023-04-21T12:40:51;11.52;;;9.48;;
15096;SDS011;7649;52.084;7.478;2023-04-21T12:43:20;14.88;;;10.13;;
15096;SDS011;7649;52.084;7.478;2023-04-21T12:45:48;12.05;;;9.70;;
15096;SDS011;7649;52.084;7.478;2023-04-21T12:48:18;12.65;;;9.20;;
15096;SDS011;7649;52.084;7.478;2023-04-21T12:50:48;14.00;;;8.90;;
15096;SDS011;7649;52.084;7.478;2023-04-21T12:53:16;16.38;;;9.30;;
15096;SDS011;7649;52.084;7.478;2023-04-21T12:55:45;13.07;;;9.07;;
15096;SDS011;7649;52.084;7.478;2023-04-21T12:58:29;13.88;;;7.65;;
15096;SDS011;7649;52.084;7.478;2023-04-21T13:00:57;10.80;;;8.88;;
15096;SDS011;7649;52.084;7.478;2023-04-21T13:03:28;9.73;;;8.55;;
15096;SDS011;7649;52.084;7.478;2023-04-21T13:05:58;9.80;;;8.05;;
15096;SDS011;7649;52.084;7.478;2023-04-21T13:08:26;8.98;;;7.47;;
15096;SDS011;7649;52.084;7.478;2023-04-21T13:10:54;13.35;;;7.80;;
15096;SDS011;7649;52.084;7.478;2023-04-21T13:13:23;9.82;;;7.70;;
15096;SDS011;7649;52.084;7.478;2023-04-21T13:15:51;10.32;;;7.78;;
15096;SDS011;7649;52.084;7.478;2023-04-21T13:18:20;11.93;;;7.53;;
15096;SDS011;7649;52.084;7.478;2023-04-21T13:20:48;16.42;;;7.97;;
15096;SDS011;7649;52.084;7.478;2023-04-21T13:23:18;10.50;;;6.95;;
15096;SDS011;7649;52.084;7.478;2023-04-21T13:25:46;9.02;;;6.80;;
15096;SDS011;7649;52.084;7.478;2023-04-21T13:28:16;12.55;;;6.88;;
15096;SDS011;7649;52.084;7.478;2023-04-21T13:30:44;9.15;;;6.20;;
15096;SDS011;7649;52.084;7.478;2023-04-21T13:33:12;11.77;;;6.63;;
15096;SDS011;7649;52.084;7.478;2023-04-21T13:35:41;10.93;;;5.70;;
15096;SDS011;7649;52.084;7.478;2023-04-21T13:38:10;9.15;;;5.60;;
15096;SDS011;7649;52.084;7.478;2023-04-21T13:40:40;9.07;;;5.57;;
15096;SDS011;7649;52.084;7.478;2023-04-21T13:43:08;6.60;;;5.95;;
15096;SDS011;7649;52.084;7.478;2023-04-21T13:45:36;5.95;;;5.45;;
15096;SDS011;7649;52.084;7.478;2023-04-21T13:48:04;7.00;;;5.43;;
15096;SDS011;7649;52.084;7.478;2023-04-21T13:50:33;8.70;;;5.65;;
15096;SDS011;7649;52.084;7.478;2023-04-21T13:53:01;8.88;;;5.50;;
15096;SDS011;7649;52.084;7.478;2023-04-21T13:55:30;10.20;;;5.50;;
15096;SDS011;7649;52.084;7.478;2023-04-21T13:57:59;7.13;;;5.28;;
15096;SDS011;7649;52.084;7.478;2023-04-21T14:00:28;12.32;;;5.70;;
15096;SDS011;7649;52.084;7.478;2023-04-21T14:02:56;6.18;;;5.03;;
15096;SDS011;7649;52.084;7.478;2023-04-21T14:05:25;7.88;;;4.50;;
15096;SDS011;7649;52.084;7.478;2023-04-21T14:07:53;6.38;;;4.93;;
15096;SDS011;7649;52.084;7.478;2023-04-21T14:10:22;8.95;;;4.80;;
15096;SDS011;7649;52.084;7.478;2023-04-21T14:12:50;7.07;;;4.78;;
15096;SDS011;7649;52.084;7.478;2023-04-21T14:15:20;5.43;;;4.75;;
15096;SDS011;7649;52.084;7.478;2023-04-21T14:17:48;5.97;;;4.80;;
15096;SDS011;7649;52.084;7.478;2023-04-21T14:20:16;5.40;;;4.32;;
15096;SDS011;7649;52.084;7.478;2023-04-21T14:22:45;5.55;;;4.53;;
15096;SDS011;7649;52.084;7.478;2023-04-21T14:25:13;7.18;;;5.00;;
15096;SDS011;7649;52.084;7.478;2023-04-21T14:27:41;7.10;;;4.32;;
15096;SDS011;7649;52.084;7.478;2023-04-21T14:30:11;6.05;;;4.40;;
15096;SDS011;7649;52.084;7.478;2023-04-21T14:32:40;7.25;;;4.40;;
15096;SDS011;7649;52.084;7.478;2023-04-21T14:35:11;5.90;;;4.57;;
15096;SDS011;7649;52.084;7.478;2023-04-21T14:37:39;8.43;;;4.40;;
15096;SDS011;7649;52.084;7.478;2023-04-21T14:40:08;8.48;;;4.45;;
15096;SDS011;7649;52.084;7.478;2023-04-21T14:42:36;8.27;;;4.95;;
15096;SDS011;7649;52.084;7.478;2023-04-21T14:45:07;8.05;;;4.75;;
15096;SDS011;7649;52.084;7.478;2023-04-21T14:47:35;4.88;;;4.07;;
15096;SDS011;7649;52.084;7.478;2023-04-21T14:50:06;5.82;;;4.65;;
15096;SDS011;7649;52.084;7.478;2023-04-21T14:52:34;5.97;;;4.40;;